Time;durP1;ratioP1;P1;durP2;ratioP2;P2;SDS_P1;SDS_P2;PMS_P1;PMS_P2;Temp;Humidity;BMP_temperature;BMP_pressure;BME280_temperature;BME280_humidity;BME280_pressure;Samples;Min_cycle;Max_cycle;Signal;HPM_P1;HPM_P2
2021/11/06 00:01:56;;;;;;;12.93;5.70;;;5.20;99.90;;;;;;5072620;28;20020;-73
2021/11/06 00:04:21;;;;;;;18.80;8.57;;;5.10;99.90;;;;;;5072578;28;20427;-71
2021/11/06 00:06:47;;;;;;;9.75;5.63;;;5.20;99.90;;;;;;5075556;28;20108;-72
2021/11/06 00:09:13;;;;;;;17.08;7.55;;;5.10;99.90;;;;;;5074833;28;20062;-72
2021/11/06 00:11:39;;;;;;;13.25;7.38;;;5.10;99.90;;;;;;5076124;28;20035;-73
2021/11/06 00:14:04;;;;;;;11.93;6.20;;;5.00;99.90;;;;;;5076393;28;20104;-72
2021/11/06 00:16:30;;;;;;;9.00;5.20;;;5.00;99.90;;;;;;5076056;28;20033;-73
2021/11/06 00:18:56;;;;;;;10.40;5.65;;;5.00;99.90;;;;;;5075805;28;20127;-72
2021/11/06 00:21:21;;;;;;;9.25;5.40;;;5.10;99.90;;;;;;5076015;28;20096;-71
2021/11/06 00:23:47;;;;;;;7.68;4.18;;;5.10;99.90;;;;;;5075914;28;20020;-71
2021/11/06 00:26:12;;;;;;;11.10;5.07;;;5.10;99.90;;;;;;5076136;28;20070;-72
2021/11/06 00:28:38;;;;;;;8.52;5.00;;;5.10;99.90;;;;;;5075821;28;20029;-72
2021/11/06 00:31:04;;;;;;;8.32;5.57;;;5.00;99.90;;;;;;5076343;28;20028;-72
2021/11/06 00:33:30;;;;;;;11.38;5.47;;;4.80;99.90;;;;;;5075690;28;20025;-71
2021/11/06 00:35:56;;;;;;;10.52;6.53;;;4.90;99.90;;;;;;5075977;28;20066;-71
2021/11/06 00:38:21;;;;;;;11.23;5.82;;;5.00;99.90;;;;;;5074374;28;20033;-72
2021/11/06 00:40:47;;;;;;;16.52;7.50;;;4.90;99.90;;;;;;5075600;28;20025;-72
2021/11/06 00:43:13;;;;;;;11.68;6.75;;;5.20;99.90;;;;;;5075569;28;20031;-72
2021/11/06 00:45:38;;;;;;;11.98;7.05;;;5.00;99.90;;;;;;5075561;28;20064;-72
2021/11/06 00:48:04;;;;;;;10.35;5.60;;;4.90;99.90;;;;;;5075500;28;20028;-72
2021/11/06 00:50:30;;;;;;;8.45;5.00;;;5.00;99.90;;;;;;5076028;28;20095;-71
2021/11/06 00:52:55;;;;;;;10.88;5.60;;;5.00;99.90;;;;;;5075873;28;20025;-71
2021/11/06 00:55:22;;;;;;;10.27;5.43;;;5.00;99.90;;;;;;5075425;28;20025;-72
2021/11/06 00:57:48;;;;;;;8.13;4.53;;;4.90;99.90;;;;;;5075351;28;20028;-72
2021/11/06 01:00:17;;;;;;;8.15;4.97;;;5.10;99.90;;;;;;5075298;28;20017;-72
2021/11/06 01:02:43;;;;;;;10.77;5.03;;;5.10;99.90;;;;;;5075248;28;20024;-71
2021/11/06 01:05:10;;;;;;;8.88;4.43;;;4.90;99.90;;;;;;5075180;28;20029;-72
2021/11/06 01:07:36;;;;;;;9.23;4.97;;;4.90;99.90;;;;;;5075108;28;20059;-73
2021/11/06 01:10:04;;;;;;;9.48;4.25;;;5.20;99.90;;;;;;5075123;28;20421;-71
2021/11/06 01:12:29;;;;;;;7.70;3.90;;;5.00;99.90;;;;;;5074937;28;20031;-71
2021/11/06 01:14:55;;;;;;;7.50;4.20;;;5.00;99.90;;;;;;5075254;28;20394;-71
2021/11/06 01:17:21;;;;;;;7.18;4.28;;;5.00;99.90;;;;;;5075097;28;20390;-72
2021/11/06 01:19:46;;;;;;;9.13;4.35;;;5.10;99.90;;;;;;5074480;28;20049;-72
2021/11/06 01:22:12;;;;;;;11.45;5.85;;;5.00;99.90;;;;;;5074802;28;20024;-72
2021/11/06 01:24:38;;;;;;;9.13;4.25;;;4.80;99.90;;;;;;5074759;28;20024;-73
2021/11/06 01:27:04;;;;;;;10.05;4.57;;;4.80;99.90;;;;;;5075027;28;20032;-72
2021/11/06 01:29:30;;;;;;;9.57;4.68;;;4.80;99.90;;;;;;5074992;28;20024;-71
2021/11/06 01:31:55;;;;;;;9.20;4.30;;;4.60;99.90;;;;;;5074785;28;20036;-72
2021/11/06 01:34:21;;;;;;;9.18;4.55;;;4.60;99.90;;;;;;5074597;28;20028;-72
2021/11/06 01:36:47;;;;;;;9.68;4.63;;;4.50;99.90;;;;;;5074560;28;20020;-72
2021/11/06 01:39:12;;;;;;;6.78;3.72;;;4.60;99.90;;;;;;5074742;28;20028;-73
2021/11/06 01:41:38;;;;;;;8.60;4.15;;;4.60;99.90;;;;;;5074461;28;20020;-73
2021/11/06 01:44:04;;;;;;;7.88;4.57;;;4.50;99.90;;;;;;5074970;28;20074;-73
2021/11/06 01:46:30;;;;;;;7.90;4.35;;;4.30;99.90;;;;;;5074381;28;20382;-71
2021/11/06 01:48:56;;;;;;;9.05;4.35;;;4.30;99.90;;;;;;5074896;28;20031;-72
2021/11/06 01:51:22;;;;;;;7.93;4.18;;;4.20;99.90;;;;;;5074313;28;20012;-71
2021/11/06 01:53:48;;;;;;;6.20;3.67;;;4.20;99.90;;;;;;5074143;28;20089;-72
2021/11/06 01:56:14;;;;;;;8.35;4.28;;;4.30;99.90;;;;;;5074215;28;20055;-72
2021/11/06 01:58:42;;;;;;;6.65;3.58;;;4.30;99.90;;;;;;5074371;28;20093;-72
2021/11/06 02:01:08;;;;;;;7.70;3.78;;;4.20;99.90;;;;;;5074030;28;20012;-72
2021/11/06 02:03:34;;;;;;;7.60;3.85;;;4.30;99.90;;;;;;5074270;28;20046;-72
2021/11/06 02:06:00;;;;;;;8.80;3.67;;;4.50;99.90;;;;;;5072710;28;20025;-73
2021/11/06 02:08:26;;;;;;;6.97;3.80;;;4.70;99.90;;;;;;5073912;28;20020;-72
2021/11/06 02:10:52;;;;;;;6.75;3.67;;;4.70;99.90;;;;;;5074065;28;20024;-72
2021/11/06 02:13:18;;;;;;;6.70;3.60;;;4.60;99.90;;;;;;5073747;28;20028;-72
2021/11/06 02:15:44;;;;;;;6.53;3.60;;;4.70;99.90;;;;;;5074082;28;20025;-70
2021/11/06 02:18:10;;;;;;;11.43;5.10;;;4.70;99.90;;;;;;5073462;28;20132;-73
2021/11/06 02:20:36;;;;;;;10.43;5.40;;;4.80;99.90;;;;;;5073726;28;20048;-71
2021/11/06 02:23:02;;;;;;;8.52;4.47;;;4.70;99.90;;;;;;5073667;28;20025;-73
2021/11/06 02:25:29;;;;;;;8.90;4.20;;;4.70;99.90;;;;;;5073819;28;20075;-71
2021/11/06 02:27:55;;;;;;;9.55;4.60;;;4.70;99.90;;;;;;5073404;28;20029;-72
2021/11/06 02:30:21;;;;;;;10.52;4.95;;;4.70;99.90;;;;;;5073528;28;20103;-72
2021/11/06 02:32:48;;;;;;;6.93;3.75;;;4.50;99.90;;;;;;5073444;28;20027;-73
2021/11/06 02:35:14;;;;;;;7.28;3.80;;;4.30;99.90;;;;;;5073490;28;20099;-73
2021/11/06 02:37:42;;;;;;;10.15;4.60;;;4.60;99.90;;;;;;5073451;28;20021;-72
2021/11/06 02:40:09;;;;;;;9.20;4.15;;;4.70;99.90;;;;;;5073739;28;20458;-73
2021/11/06 02:42:36;;;;;;;11.10;3.53;;;4.70;99.90;;;;;;5073360;28;20025;-73
2021/11/06 02:45:05;;;;;;;7.68;3.58;;;4.40;99.90;;;;;;5073363;28;20024;-72
2021/11/06 02:47:31;;;;;;;7.05;3.38;;;4.30;99.90;;;;;;5073846;28;20425;-71
2021/11/06 02:49:57;;;;;;;6.47;3.17;;;4.30;99.90;;;;;;5073285;28;20024;-71
2021/11/06 02:52:23;;;;;;;6.70;3.22;;;4.20;99.90;;;;;;5073225;28;20059;-71
2021/11/06 02:54:49;;;;;;;5.35;2.97;;;4.30;99.90;;;;;;5073802;28;20048;-72
2021/11/06 02:57:15;;;;;;;5.72;2.80;;;4.20;99.90;;;;;;5073553;28;20108;-72
2021/11/06 02:59:41;;;;;;;4.75;2.78;;;4.30;99.90;;;;;;5073488;28;20020;-71
2021/11/06 03:02:07;;;;;;;4.93;3.13;;;4.20;99.90;;;;;;5073172;28;20474;-71
2021/11/06 03:04:39;;;;;;;6.15;2.95;;;4.10;99.90;;;;;;5073177;28;20032;-71
2021/11/06 03:07:06;;;;;;;7.55;3.53;;;4.20;99.90;;;;;;5073423;28;20040;-72
2021/11/06 03:09:37;;;;;;;6.07;3.17;;;4.20;99.90;;;;;;5073017;28;20397;-72
2021/11/06 03:12:05;;;;;;;7.70;4.05;;;4.30;99.90;;;;;;5073318;28;20031;-71
2021/11/06 03:14:33;;;;;;;5.50;2.88;;;4.20;99.90;;;;;;5073251;28;20446;-71
2021/11/06 03:16:58;;;;;;;7.40;3.35;;;4.30;99.90;;;;;;5073021;28;20111;-71
2021/11/06 03:19:24;;;;;;;9.40;3.50;;;4.10;99.90;;;;;;5072622;28;20474;-71
2021/11/06 03:21:49;;;;;;;10.20;3.97;;;4.10;99.90;;;;;;5073010;28;20407;-72
2021/11/06 03:24:15;;;;;;;5.35;3.42;;;4.20;99.90;;;;;;5072939;28;20028;-71
2021/11/06 03:26:41;;;;;;;5.43;2.97;;;4.20;99.90;;;;;;5073209;28;20039;-72
2021/11/06 03:29:07;;;;;;;5.97;3.05;;;4.20;99.90;;;;;;5073180;28;20112;-73
2021/11/06 03:31:33;;;;;;;7.15;3.50;;;4.10;99.90;;;;;;5072849;28;20074;-71
2021/11/06 03:33:58;;;;;;;5.40;3.00;;;4.10;99.90;;;;;;5073159;28;20024;-71
2021/11/06 03:36:24;;;;;;;5.32;3.20;;;4.20;99.90;;;;;;5072842;28;20103;-71
2021/11/06 03:38:50;;;;;;;4.18;2.60;;;4.10;99.90;;;;;;5072868;28;20029;-72
2021/11/06 03:41:16;;;;;;;5.90;3.05;;;4.00;99.90;;;;;;5075275;28;20075;-73
2021/11/06 03:43:41;;;;;;;5.43;3.38;;;4.10;99.90;;;;;;5077027;28;20529;-71
2021/11/06 03:46:07;;;;;;;5.50;3.05;;;4.10;99.90;;;;;;5077232;28;20029;-71
2021/11/06 03:48:33;;;;;;;6.35;3.20;;;4.20;99.90;;;;;;5077188;28;20154;-72
2021/11/06 03:50:59;;;;;;;5.93;2.80;;;4.20;99.90;;;;;;5076589;28;20040;-72
2021/11/06 03:53:25;;;;;;;4.57;2.65;;;4.20;99.90;;;;;;5076488;28;20060;-72
2021/11/06 03:55:51;;;;;;;6.40;3.08;;;4.30;99.90;;;;;;5077039;28;20052;-71
2021/11/06 03:58:17;;;;;;;5.38;3.03;;;4.20;99.90;;;;;;5076695;28;20441;-71
2021/11/06 04:00:43;;;;;;;5.78;3.00;;;4.30;99.90;;;;;;5076387;28;20090;-72
2021/11/06 04:03:08;;;;;;;8.32;3.53;;;4.30;99.90;;;;;;5076373;28;20016;-71
2021/11/06 04:05:34;;;;;;;7.03;3.35;;;4.30;99.90;;;;;;5076583;28;20029;-72
2021/11/06 04:08:00;;;;;;;5.88;3.58;;;4.40;99.90;;;;;;5076825;28;20099;-72
2021/11/06 04:10:26;;;;;;;5.07;3.42;;;4.20;99.90;;;;;;5076665;28;20032;-72
2021/11/06 04:12:51;;;;;;;6.15;3.40;;;4.20;99.90;;;;;;5076110;28;20024;-73
2021/11/06 04:15:17;;;;;;;8.18;3.42;;;4.20;99.90;;;;;;5076088;28;20025;-72
2021/11/06 04:17:44;;;;;;;6.40;3.60;;;4.20;99.90;;;;;;5076636;28;20104;-72
2021/11/06 04:20:10;;;;;;;6.75;3.47;;;4.20;99.90;;;;;;5076069;28;20024;-73
2021/11/06 04:22:36;;;;;;;6.70;3.90;;;4.40;99.90;;;;;;5076283;28;20028;-73
2021/11/06 04:25:04;;;;;;;10.10;4.45;;;4.40;99.90;;;;;;5075944;28;20513;-72
2021/11/06 04:27:30;;;;;;;7.75;3.85;;;4.40;99.90;;;;;;5076488;28;20021;-72
2021/11/06 04:29:55;;;;;;;7.55;3.70;;;4.30;99.90;;;;;;5075851;28;20402;-72
2021/11/06 04:32:22;;;;;;;6.93;3.55;;;4.30;99.90;;;;;;5075741;28;20032;-71
2021/11/06 04:34:48;;;;;;;7.10;3.28;;;4.00;99.90;;;;;;5075779;28;20023;-71
2021/11/06 04:37:14;;;;;;;6.85;3.70;;;3.90;99.90;;;;;;5075720;28;20021;-73
2021/11/06 04:39:40;;;;;;;8.70;3.72;;;3.90;99.90;;;;;;5075749;28;20025;-72
2021/11/06 04:42:06;;;;;;;6.18;3.53;;;3.90;99.90;;;;;;5075650;28;20044;-72
2021/11/06 04:44:31;;;;;;;7.30;3.83;;;3.90;99.90;;;;;;5075231;28;20558;-72
2021/11/06 04:46:57;;;;;;;7.03;4.47;;;3.90;99.90;;;;;;5075546;28;20100;-72
2021/11/06 04:49:23;;;;;;;8.32;3.95;;;4.00;99.90;;;;;;5075802;28;20479;-71
2021/11/06 04:51:49;;;;;;;9.95;4.18;;;4.10;99.90;;;;;;5075224;28;20033;-73
2021/11/06 04:54:15;;;;;;;6.30;4.00;;;3.80;99.90;;;;;;5075695;28;20082;-72
2021/11/06 04:56:40;;;;;;;6.13;3.65;;;4.00;99.90;;;;;;5075642;28;20028;-71
2021/11/06 04:59:06;;;;;;;7.20;3.25;;;3.90;99.90;;;;;;5075586;28;20024;-71
2021/11/06 05:01:32;;;;;;;6.95;3.50;;;3.80;99.90;;;;;;5075282;28;20478;-72
2021/11/06 05:03:57;;;;;;;4.93;2.80;;;3.90;99.90;;;;;;5075189;28;20103;-73
2021/11/06 05:06:23;;;;;;;5.50;3.00;;;3.90;99.90;;;;;;5075478;28;20027;-71
2021/11/06 05:08:49;;;;;;;5.25;2.88;;;4.00;99.90;;;;;;5075374;28;20526;-71
2021/11/06 05:11:14;;;;;;;6.07;2.60;;;3.90;99.90;;;;;;5075645;28;20029;-73
2021/11/06 05:13:40;;;;;;;5.97;3.45;;;3.80;99.90;;;;;;5074954;28;20026;-72
2021/11/06 05:16:06;;;;;;;6.72;2.97;;;3.90;99.90;;;;;;5075028;28;20025;-72
2021/11/06 05:18:31;;;;;;;4.35;2.90;;;3.90;99.90;;;;;;5074760;28;20052;-72
2021/11/06 05:20:57;;;;;;;5.70;2.78;;;3.90;99.90;;;;;;5075186;28;20033;-72
2021/11/06 05:23:22;;;;;;;4.78;2.20;;;3.80;99.90;;;;;;5075117;28;20051;-72
2021/11/06 05:25:48;;;;;;;4.25;2.33;;;3.70;99.90;;;;;;5074775;28;20393;-71
2021/11/06 05:28:14;;;;;;;6.00;2.50;;;3.60;99.90;;;;;;5073488;28;20026;-72
2021/11/06 05:30:43;;;;;;;4.25;2.60;;;3.60;99.90;;;;;;5074985;28;20553;-72
2021/11/06 05:33:09;;;;;;;5.65;2.83;;;3.60;99.90;;;;;;5074582;28;20496;-71
2021/11/06 05:35:35;;;;;;;4.05;2.40;;;3.70;99.90;;;;;;5074682;28;20474;-71
2021/11/06 05:38:01;;;;;;;3.60;2.30;;;3.90;99.90;;;;;;5074596;28;20048;-72
2021/11/06 05:40:26;;;;;;;5.50;2.67;;;3.90;99.90;;;;;;5074815;28;20025;-72
2021/11/06 05:42:52;;;;;;;4.63;2.63;;;3.90;99.90;;;;;;5074476;28;20036;-71
2021/11/06 05:45:18;;;;;;;6.20;2.33;;;3.90;99.90;;;;;;5074443;28;20038;-73
2021/11/06 05:47:44;;;;;;;3.33;2.10;;;3.80;99.90;;;;;;5074376;28;20078;-71
2021/11/06 05:50:11;;;;;;;3.40;1.90;;;3.90;99.90;;;;;;5074301;28;20028;-72
2021/11/06 05:52:37;;;;;;;3.10;2.25;;;3.70;99.90;;;;;;5074213;28;20016;-72
2021/11/06 05:55:05;;;;;;;2.35;1.77;;;3.80;99.90;;;;;;5074278;28;20020;-73
2021/11/06 05:57:32;;;;;;;4.47;2.28;;;3.80;99.90;;;;;;5074454;28;20019;-73
2021/11/06 05:59:58;;;;;;;5.03;2.13;;;3.80;99.90;;;;;;5074185;28;20513;-72
2021/11/06 06:02:24;;;;;;;4.25;2.58;;;3.80;99.90;;;;;;5073755;28;20020;-71
2021/11/06 06:04:50;;;;;;;4.00;2.17;;;3.70;99.90;;;;;;5073916;28;20538;-73
2021/11/06 06:07:15;;;;;;;3.95;2.35;;;3.70;99.90;;;;;;5073983;28;20059;-71
2021/11/06 06:09:41;;;;;;;6.10;3.33;;;3.60;99.90;;;;;;5074129;28;20382;-71
2021/11/06 06:12:07;;;;;;;8.88;3.65;;;3.60;99.90;;;;;;5074081;28;20066;-72
2021/11/06 06:14:33;;;;;;;5.72;2.50;;;3.50;99.90;;;;;;5074463;28;20020;-70
2021/11/06 06:16:58;;;;;;;6.13;2.40;;;3.50;99.90;;;;;;5073802;28;20017;-71
2021/11/06 06:19:24;;;;;;;3.63;2.45;;;3.50;99.90;;;;;;5073587;28;20040;-71
2021/11/06 06:21:50;;;;;;;5.32;3.42;;;3.60;99.90;;;;;;5073969;28;20022;-72
2021/11/06 06:24:15;;;;;;;4.65;2.63;;;3.50;99.90;;;;;;5072378;28;20478;-71
2021/11/06 06:26:41;;;;;;;4.75;2.50;;;3.50;99.90;;;;;;5074159;28;20074;-73
2021/11/06 06:29:07;;;;;;;5.65;2.88;;;3.40;99.90;;;;;;5073588;28;20078;-71
2021/11/06 06:31:32;;;;;;;14.45;7.22;;;3.60;99.90;;;;;;5073827;28;20051;-72
2021/11/06 06:33:58;;;;;;;4.93;2.55;;;3.70;99.90;;;;;;5073443;28;20107;-73
2021/11/06 06:36:23;;;;;;;10.10;6.13;;;3.70;99.90;;;;;;5073814;28;20020;-70
2021/11/06 06:38:49;;;;;;;12.25;6.95;;;3.60;99.90;;;;;;5073498;28;20047;-72
2021/11/06 06:41:15;;;;;;;11.45;5.85;;;3.50;99.90;;;;;;5073406;28;20047;-72
2021/11/06 06:43:41;;;;;;;9.93;5.88;;;3.70;99.90;;;;;;5073377;28;20505;-73
2021/11/06 06:46:07;;;;;;;12.27;5.78;;;3.70;99.90;;;;;;5072069;28;20035;-71
2021/11/06 06:48:33;;;;;;;15.32;6.70;;;3.70;99.90;;;;;;5073364;28;20103;-72
2021/11/06 06:50:58;;;;;;;23.38;7.80;;;3.80;99.90;;;;;;5073325;28;20389;-72
2021/11/06 06:53:24;;;;;;;17.15;6.55;;;3.80;99.90;;;;;;5073226;28;20407;-71
2021/11/06 06:55:49;;;;;;;11.85;5.05;;;3.80;99.90;;;;;;5073240;28;20017;-72
2021/11/06 06:58:15;;;;;;;10.38;4.75;;;3.90;99.90;;;;;;5073814;28;20028;-73
2021/11/06 07:00:41;;;;;;;14.52;8.05;;;3.70;99.90;;;;;;5073167;28;20486;-72
2021/11/06 07:03:07;;;;;;;22.63;13.15;;;3.60;99.90;;;;;;5073471;28;20056;-71
2021/11/06 07:05:32;;;;;;;25.92;14.15;;;3.70;99.90;;;;;;5073684;28;20056;-73
2021/11/06 07:07:58;;;;;;;19.95;11.77;;;3.80;99.90;;;;;;5073713;28;20023;-71
2021/11/06 07:10:25;;;;;;;12.50;8.23;;;3.70;99.90;;;;;;5073013;28;20398;-72
2021/11/06 07:12:51;;;;;;;11.23;6.47;;;3.60;99.90;;;;;;5073317;28;20028;-71
2021/11/06 07:15:17;;;;;;;10.88;6.47;;;3.60;99.90;;;;;;5076194;28;20367;-72
2021/11/06 07:17:42;;;;;;;7.90;4.75;;;3.60;99.90;;;;;;5079585;28;20401;-71
2021/11/06 07:20:09;;;;;;;9.35;4.60;;;3.60;99.90;;;;;;5080018;28;20025;-72
2021/11/06 07:22:36;;;;;;;10.70;6.50;;;3.60;99.90;;;;;;5079715;28;20028;-71
2021/11/06 07:25:06;;;;;;;10.43;5.80;;;3.80;99.90;;;;;;5079662;28;20024;-73
2021/11/06 07:27:31;;;;;;;12.07;6.53;;;3.70;99.90;;;;;;5080217;28;20024;-72
2021/11/06 07:29:58;;;;;;;10.85;6.13;;;3.80;99.90;;;;;;5079867;28;20477;-70
2021/11/06 07:32:24;;;;;;;10.20;5.63;;;4.10;99.90;;;;;;5079814;28;20465;-72
2021/11/06 07:34:50;;;;;;;8.48;4.72;;;4.10;99.90;;;;;;5079564;28;20021;-72
2021/11/06 07:37:15;;;;;;;42.67;20.23;;;4.20;99.90;;;;;;5079590;28;20393;-73
2021/11/06 07:39:41;;;;;;;23.48;11.70;;;4.00;99.90;;;;;;5079537;28;20025;-72
2021/11/06 07:42:07;;;;;;;8.85;4.47;;;4.10;99.90;;;;;;5079794;28;20107;-73
2021/11/06 07:44:33;;;;;;;7.47;3.55;;;4.10;99.90;;;;;;5079509;28;20398;-72
2021/11/06 07:46:58;;;;;;;40.13;18.83;;;4.00;99.90;;;;;;5079477;28;20060;-72
2021/11/06 07:49:25;;;;;;;82.07;41.15;;;4.00;99.90;;;;;;5079470;28;20025;-72
2021/11/06 07:51:51;;;;;;;13.50;8.00;;;4.20;99.90;;;;;;5079870;28;20016;-71
2021/11/06 07:54:17;;;;;;;14.43;8.93;;;4.10;99.90;;;;;;5079363;28;20023;-73
2021/11/06 07:56:43;;;;;;;11.27;5.80;;;4.30;99.90;;;;;;5079364;28;20466;-71
2021/11/06 07:59:08;;;;;;;8.70;5.72;;;4.30;99.90;;;;;;5079334;28;20106;-73
2021/11/06 08:01:34;;;;;;;8.07;4.63;;;4.30;99.90;;;;;;5079296;28;20078;-73
2021/11/06 08:04:00;;;;;;;8.88;4.85;;;4.40;99.90;;;;;;5079268;28;20028;-71
2021/11/06 08:06:26;;;;;;;12.85;5.43;;;4.50;99.90;;;;;;5079279;28;20149;-72
2021/11/06 08:08:51;;;;;;;11.25;6.60;;;4.60;99.90;;;;;;5079177;28;20104;-71
2021/11/06 08:11:17;;;;;;;9.57;5.55;;;4.60;99.90;;;;;;5079255;28;20020;-72
2021/11/06 08:13:43;;;;;;;15.43;6.65;;;4.60;99.90;;;;;;5079384;28;20052;-72
2021/11/06 08:16:08;;;;;;;12.65;6.65;;;4.60;99.90;;;;;;5079735;28;20032;-71
2021/11/06 08:18:34;;;;;;;10.95;6.38;;;4.60;99.90;;;;;;5079113;28;20499;-71
2021/11/06 08:21:00;;;;;;;14.10;6.03;;;4.60;99.90;;;;;;5079667;28;20029;-71
2021/11/06 08:23:26;;;;;;;12.77;6.90;;;4.60;99.90;;;;;;5079457;28;20081;-71
2021/11/06 08:25:52;;;;;;;11.20;7.47;;;4.70;99.90;;;;;;5077426;28;20036;-73
2021/11/06 08:28:20;;;;;;;17.05;9.25;;;4.90;99.90;;;;;;5076169;28;20027;-73
2021/11/06 08:30:45;;;;;;;15.52;8.73;;;4.80;99.90;;;;;;5075905;28;20028;-71
2021/11/06 08:33:11;;;;;;;11.95;7.68;;;4.80;99.90;;;;;;5075773;28;20104;-72
2021/11/06 08:35:38;;;;;;;13.23;9.10;;;4.80;99.90;;;;;;5075773;28;20032;-73
2021/11/06 08:38:04;;;;;;;17.08;11.20;;;4.80;99.90;;;;;;5076289;28;20033;-73
2021/11/06 08:40:30;;;;;;;14.57;9.63;;;4.80;99.90;;;;;;5075736;28;20025;-73
2021/11/06 08:42:57;;;;;;;14.85;9.88;;;5.00;99.90;;;;;;5075639;28;20036;-72
2021/11/06 08:45:23;;;;;;;16.33;9.70;;;5.10;99.90;;;;;;5075621;28;20016;-72
2021/11/06 08:47:49;;;;;;;14.52;9.65;;;5.20;99.90;;;;;;5074237;28;20465;-75
2021/11/06 08:50:19;;;;;;;17.05;11.95;;;5.30;99.90;;;;;;5075479;28;20111;-82
2021/11/06 08:52:46;;;;;;;19.38;12.13;;;5.50;99.90;;;;;;5074149;28;20044;-77
2021/11/06 08:55:12;;;;;;;20.40;13.93;;;5.60;99.90;;;;;;5075691;28;20054;-77
2021/11/06 08:57:39;;;;;;;18.55;12.40;;;5.80;99.90;;;;;;5075407;28;20071;-72
2021/11/06 09:00:13;;;;;;;17.77;11.52;;;6.00;99.90;;;;;;5075368;28;20031;-74
2021/11/06 09:02:40;;;;;;;22.35;13.15;;;6.20;99.90;;;;;;5075579;28;20048;-74
2021/11/06 09:05:07;;;;;;;19.10;12.80;;;6.50;99.90;;;;;;5075248;28;20115;-71
2021/11/06 09:07:33;;;;;;;18.70;12.38;;;6.70;99.90;;;;;;5075212;28;20067;-73
2021/11/06 09:10:01;;;;;;;21.88;12.98;;;7.20;99.90;;;;;;5075381;28;20027;-73
2021/11/06 09:12:27;;;;;;;18.83;12.30;;;7.40;99.90;;;;;;5075272;28;20089;-73
2021/11/06 09:14:53;;;;;;;16.80;10.30;;;7.30;99.90;;;;;;5075107;28;20413;-74
2021/11/06 09:17:19;;;;;;;16.27;10.25;;;7.30;99.90;;;;;;5075052;28;20032;-73
2021/11/06 09:19:45;;;;;;;13.32;8.85;;;7.30;99.90;;;;;;5074568;28;20083;-73
2021/11/06 09:22:11;;;;;;;11.90;8.20;;;7.50;99.90;;;;;;5075463;28;20032;-72
2021/11/06 09:24:37;;;;;;;13.30;9.20;;;7.60;99.90;;;;;;5075090;28;20028;-73
2021/11/06 09:27:03;;;;;;;13.75;9.57;;;7.60;99.90;;;;;;5075119;28;20025;-73
2021/11/06 09:29:28;;;;;;;11.65;8.05;;;7.70;99.90;;;;;;5073494;28;20097;-73
2021/11/06 09:31:54;;;;;;;17.05;7.80;;;7.90;99.90;;;;;;5074660;28;20037;-74
2021/11/06 09:34:21;;;;;;;11.32;8.07;;;7.90;99.90;;;;;;5074627;28;20027;-73
2021/11/06 09:36:46;;;;;;;14.20;8.35;;;7.90;99.90;;;;;;5074398;28;20028;-71
2021/11/06 09:39:14;;;;;;;12.57;7.70;;;7.70;99.90;;;;;;5073645;28;20023;-72
2021/11/06 09:41:41;;;;;;;10.25;7.28;;;7.60;99.90;;;;;;5074525;28;20100;-72
2021/11/06 09:44:08;;;;;;;14.02;9.80;;;7.70;99.90;;;;;;5074552;28;20024;-73
2021/11/06 09:46:34;;;;;;;15.32;9.93;;;7.60;99.90;;;;;;5074626;28;20031;-72
2021/11/06 09:49:00;;;;;;;14.05;10.18;;;7.50;99.90;;;;;;5074354;28;20393;-73
2021/11/06 09:51:26;;;;;;;15.77;10.90;;;7.40;99.90;;;;;;5074534;28;20033;-73
2021/11/06 09:53:54;;;;;;;15.02;10.50;;;7.60;99.90;;;;;;5074148;28;20378;-72
2021/11/06 09:56:23;;;;;;;17.00;11.40;;;8.00;99.90;;;;;;5074232;28;20067;-73
2021/11/06 09:58:50;;;;;;;16.92;11.57;;;8.30;99.90;;;;;;5074134;28;20049;-71
2021/11/06 10:01:17;;;;;;;18.45;11.80;;;8.60;99.90;;;;;;5074121;28;20025;-72
2021/11/06 10:03:42;;;;;;;17.73;11.73;;;8.70;99.90;;;;;;5074066;28;20106;-73
2021/11/06 10:06:26;;;;;;;21.23;13.05;;;8.90;99.90;;;;;;5074021;28;20060;-77
2021/11/06 10:08:53;;;;;;;21.13;11.43;;;9.00;99.90;;;;;;5073746;28;20032;-77
2021/11/06 10:11:22;;;;;;;14.38;10.45;;;9.10;99.90;;;;;;5072622;28;20037;-82
2021/11/06 10:14:00;;;;;;;13.68;9.43;;;9.30;99.90;;;;;;5073835;28;20021;-69
2021/11/06 10:16:50;;;;;;;14.07;10.32;;;9.20;99.90;;;;;;5074155;28;20059;-70
2021/11/06 10:19:21;;;;;;;17.83;8.90;;;9.10;99.90;;;;;;5073694;28;20059;-70
2021/11/06 10:21:50;;;;;;;11.07;7.00;;;9.00;99.90;;;;;;5073749;28;20029;-70
2021/11/06 10:24:35;;;;;;;10.15;6.60;;;9.10;99.90;;;;;;5073668;28;20103;-72
2021/11/06 10:27:12;;;;;;;9.57;4.95;;;9.40;99.90;;;;;;5073962;28;20103;-70
2021/11/06 10:29:39;;;;;;;8.25;3.97;;;9.60;99.90;;;;;;5073656;28;20048;-70
2021/11/06 10:32:06;;;;;;;6.72;4.10;;;9.70;99.90;;;;;;5071919;28;20024;-73
2021/11/06 10:34:35;;;;;;;7.30;4.07;;;9.80;99.90;;;;;;5074008;28;20370;-71
2021/11/06 10:37:05;;;;;;;9.73;4.60;;;9.90;99.90;;;;;;5073481;28;20017;-73
2021/11/06 10:39:32;;;;;;;9.95;5.47;;;10.10;99.90;;;;;;5090047;28;20028;-71
2021/11/06 10:42:16;;;;;;;7.47;4.25;;;10.10;99.90;;;;;;5093602;28;20095;-72
2021/11/06 10:44:43;;;;;;;16.60;7.47;;;10.00;99.90;;;;;;5093421;28;20028;-73
2021/11/06 10:47:10;;;;;;;15.18;8.57;;;10.00;99.90;;;;;;5093817;28;20017;-76
2021/11/06 10:49:38;;;;;;;13.80;6.68;;;10.00;99.90;;;;;;5093186;28;20074;-71
2021/11/06 10:52:10;;;;;;;9.43;4.95;;;10.10;99.90;;;;;;5093724;28;20016;-73
2021/11/06 10:54:58;;;;;;;6.53;3.88;;;10.10;99.90;;;;;;5093533;28;20062;-75
2021/11/06 10:57:25;;;;;;;9.73;7.07;;;10.10;99.90;;;;;;5093477;28;20025;-74
2021/11/06 11:00:09;;;;;;;9.38;5.38;;;10.20;99.90;;;;;;5093717;28;20048;-72
2021/11/06 11:02:35;;;;;;;8.95;3.60;;;10.20;99.90;;;;;;5094092;28;20056;-72
2021/11/06 11:05:00;;;;;;;6.28;3.42;;;10.20;99.90;;;;;;5093805;28;20032;-74
2021/11/06 11:07:26;;;;;;;7.50;3.60;;;10.20;99.90;;;;;;5093288;28;20024;-78
2021/11/06 11:09:52;;;;;;;6.50;3.88;;;10.20;99.90;;;;;;5093276;28;20077;-78
2021/11/06 11:12:19;;;;;;;7.07;4.18;;;10.30;99.90;;;;;;5093316;28;20058;-78
2021/11/06 11:14:55;;;;;;;8.30;5.47;;;10.30;99.90;;;;;;5092289;28;20038;-76
2021/11/06 11:17:44;;;;;;;7.50;4.57;;;10.30;99.90;;;;;;5091607;28;20436;-78
2021/11/06 11:20:24;;;;;;;6.47;4.28;;;10.40;99.90;;;;;;5093529;28;20043;-78
2021/11/06 11:23:08;;;;;;;8.63;5.50;;;10.50;99.90;;;;;;5093768;28;20077;-76
2021/11/06 11:25:36;;;;;;;7.88;4.93;;;10.60;99.90;;;;;;5093539;28;20035;-77
2021/11/06 11:28:02;;;;;;;6.97;4.85;;;10.70;99.90;;;;;;5093457;28;20103;-79
2021/11/06 11:30:28;;;;;;;9.25;4.95;;;10.70;99.90;;;;;;5093152;28;20046;-79
2021/11/06 11:32:54;;;;;;;9.02;4.63;;;10.70;99.90;;;;;;5093262;28;20036;-78
2021/11/06 11:35:19;;;;;;;7.57;4.25;;;10.60;99.90;;;;;;5093600;28;20155;-79
2021/11/06 11:37:45;;;;;;;12.38;4.65;;;10.70;99.90;;;;;;5093619;28;20020;-76
2021/11/06 11:40:11;;;;;;;7.07;4.60;;;10.70;99.90;;;;;;5093322;28;20031;-77
2021/11/06 11:42:52;;;;;;;8.05;4.93;;;10.70;99.90;;;;;;5092990;28;20020;-79
2021/11/06 11:45:31;;;;;;;11.95;4.70;;;10.70;99.90;;;;;;5092713;28;20020;-80
2021/11/06 11:48:06;;;;;;;8.82;4.70;;;10.80;99.90;;;;;;5092699;28;20059;-79
2021/11/06 11:50:35;;;;;;;8.57;5.03;;;10.80;99.90;;;;;;5093076;28;20146;-77
2021/11/06 11:53:07;;;;;;;11.05;4.70;;;10.80;99.90;;;;;;5093246;28;20105;-78
2021/11/06 11:55:42;;;;;;;10.73;6.88;;;10.90;99.90;;;;;;5093410;28;20030;-78
2021/11/06 11:58:09;;;;;;;10.15;5.30;;;11.00;99.90;;;;;;5091576;28;20029;-79
2021/11/06 12:00:41;;;;;;;10.70;5.78;;;11.10;99.90;;;;;;5092849;28;20099;-78
2021/11/06 12:03:08;;;;;;;11.10;5.63;;;11.20;99.90;;;;;;5097113;28;20028;-77
2021/11/06 12:05:41;;;;;;;13.05;6.78;;;11.20;99.90;;;;;;5096911;28;20571;-79
2021/11/06 12:08:10;;;;;;;13.55;7.50;;;11.20;99.90;;;;;;5096614;28;20058;-77
2021/11/06 12:10:55;;;;;;;11.68;6.43;;;11.20;99.90;;;;;;5096757;28;20020;-78
2021/11/06 12:13:30;;;;;;;7.30;4.70;;;11.20;99.90;;;;;;5097024;28;20027;-77
2021/11/06 12:16:05;;;;;;;10.07;6.55;;;11.30;99.90;;;;;;5096470;28;20028;-77
2021/11/06 12:18:34;;;;;;;8.32;4.68;;;11.20;99.90;;;;;;5096336;28;20063;-79
2021/11/06 12:21:15;;;;;;;8.98;5.18;;;11.20;99.90;;;;;;5096343;28;20486;-78
2021/11/06 12:23:42;;;;;;;7.68;4.60;;;11.20;99.90;;;;;;5096916;28;20046;-77
2021/11/06 12:26:11;;;;;;;9.25;5.10;;;11.20;99.90;;;;;;5096270;28;20106;-77
2021/11/06 12:28:37;;;;;;;7.10;4.45;;;11.20;99.90;;;;;;5096391;28;20428;-78
2021/11/06 12:31:22;;;;;;;9.88;5.15;;;11.20;99.90;;;;;;5096101;28;20028;-78
2021/11/06 12:33:49;;;;;;;8.98;4.50;;;11.30;99.90;;;;;;5095929;28;20032;-78
2021/11/06 12:36:23;;;;;;;8.05;4.75;;;11.30;99.90;;;;;;5096091;28;20016;-79
2021/11/06 12:39:00;;;;;;;8.75;4.68;;;11.40;99.90;;;;;;5096641;28;20047;-77
2021/11/06 12:41:37;;;;;;;8.13;4.70;;;11.40;99.90;;;;;;5096246;28;20039;-78
2021/11/06 12:44:06;;;;;;;7.40;4.22;;;11.40;99.90;;;;;;5096479;28;20024;-79
2021/11/06 12:46:34;;;;;;;6.78;3.83;;;11.50;99.90;;;;;;5094587;28;20028;-79
2021/11/06 12:49:04;;;;;;;8.43;4.10;;;11.60;99.90;;;;;;5095788;28;20031;-77
2021/11/06 12:51:38;;;;;;;8.00;4.60;;;11.70;99.90;;;;;;5095763;28;20027;-78